Time;durP1;ratioP1;P1;durP2;ratioP2;P2;SDS_P1;SDS_P2;PMS_P1;PMS_P2;Temp;Humidity;BMP_temperature;BMP_pressure;BME280_temperature;BME280_humidity;BME280_pressure;Samples;Min_cycle;Max_cycle;Signal;HPM_P1;HPM_P2
2023/10/28 00:01:40;;;;;;;6.38;1.20;;;10.60;99.90;;;;;;4974771;28;20039;-51
2023/10/28 00:04:07;;;;;;;3.45;1.50;;;10.50;99.90;;;;;;4974746;28;20058;-51
2023/10/28 00:06:34;;;;;;;2.42;1.00;;;10.50;99.90;;;;;;4974607;28;20086;-55
2023/10/28 00:09:01;;;;;;;4.38;1.02;;;10.50;99.90;;;;;;4974577;28;20133;-54
2023/10/28 00:11:29;;;;;;;3.55;0.93;;;10.50;99.90;;;;;;4974385;28;20521;-55
2023/10/28 00:13:56;;;;;;;4.90;1.35;;;10.50;99.90;;;;;;4974484;28;20043;-63
2023/10/28 00:16:23;;;;;;;3.10;0.90;;;10.50;99.90;;;;;;4974667;28;20043;-63
2023/10/28 00:18:49;;;;;;;5.20;1.00;;;10.50;99.90;;;;;;4974422;28;20047;-63
2023/10/28 00:21:18;;;;;;;3.95;1.30;;;10.50;99.90;;;;;;4974832;28;20055;-63
2023/10/28 00:23:44;;;;;;;3.03;1.10;;;10.50;99.90;;;;;;4976330;28;20038;-63
2023/10/28 00:26:11;;;;;;;4.35;1.15;;;10.50;99.90;;;;;;4978556;28;20046;-63
2023/10/28 00:28:39;;;;;;;4.95;1.20;;;10.50;99.90;;;;;;4977668;28;20137;-63
2023/10/28 00:31:07;;;;;;;2.67;1.00;;;10.50;99.90;;;;;;4978113;28;20047;-63
2023/10/28 00:33:34;;;;;;;4.32;1.15;;;10.50;99.90;;;;;;4993139;28;20047;-63
2023/10/28 00:36:01;;;;;;;3.72;1.10;;;10.50;99.90;;;;;;4981668;28;20039;-63
2023/10/28 00:38:30;;;;;;;4.40;1.00;;;10.50;99.90;;;;;;4999427;28;20042;-63
2023/10/28 00:40:57;;;;;;;4.93;1.42;;;10.50;99.90;;;;;;4999385;28;20038;-63
2023/10/28 00:43:24;;;;;;;3.38;1.17;;;10.40;99.90;;;;;;5017244;28;20054;-63
2023/10/28 00:45:50;;;;;;;5.35;1.30;;;10.40;99.90;;;;;;5017266;28;20125;-64
2023/10/28 00:48:17;;;;;;;3.88;1.10;;;10.30;99.90;;;;;;5016748;28;20085;-64
2023/10/28 00:50:44;;;;;;;4.28;1.10;;;10.30;99.90;;;;;;4999373;28;20097;-63
2023/10/28 00:53:11;;;;;;;3.88;1.10;;;10.20;99.90;;;;;;4999837;28;20046;-55
2023/10/28 00:55:38;;;;;;;3.72;1.33;;;10.20;99.90;;;;;;5016688;28;20398;-55
2023/10/28 00:58:06;;;;;;;3.33;1.55;;;10.20;99.90;;;;;;5016948;28;20487;-51
2023/10/28 01:00:33;;;;;;;3.05;1.10;;;10.10;99.90;;;;;;4999758;28;20538;-55
2023/10/28 01:03:00;;;;;;;2.92;1.20;;;10.10;99.90;;;;;;5016651;28;20060;-52
2023/10/28 01:05:27;;;;;;;4.30;1.63;;;10.10;99.90;;;;;;4999106;28;20049;-55
2023/10/28 01:07:54;;;;;;;5.60;1.30;;;10.00;99.90;;;;;;4999337;28;20514;-54
2023/10/28 01:10:21;;;;;;;4.93;1.20;;;10.00;99.90;;;;;;5016608;28;20435;-56
2023/10/28 01:12:48;;;;;;;2.92;0.98;;;10.00;99.90;;;;;;5016749;28;20502;-55
2023/10/28 01:15:15;;;;;;;3.75;1.10;;;9.90;99.90;;;;;;4998696;28;20045;-55
2023/10/28 01:17:42;;;;;;;2.47;1.02;;;9.90;99.90;;;;;;5016889;28;20060;-52
2023/10/28 01:20:10;;;;;;;3.33;0.85;;;9.90;99.90;;;;;;4998896;28;20498;-53
2023/10/28 01:22:37;;;;;;;3.67;1.10;;;9.90;99.90;;;;;;4998737;28;20066;-53
2023/10/28 01:25:04;;;;;;;5.25;1.13;;;9.90;99.90;;;;;;5016726;28;20049;-63
2023/10/28 01:27:31;;;;;;;3.47;1.10;;;10.00;99.90;;;;;;5016439;28;20156;-64
2023/10/28 01:29:58;;;;;;;3.65;1.00;;;9.90;99.90;;;;;;5016231;28;20492;-63
2023/10/28 01:32:25;;;;;;;4.20;1.00;;;10.00;99.90;;;;;;5016351;28;20435;-63
2023/10/28 01:34:52;;;;;;;3.50;1.05;;;9.90;99.90;;;;;;4998243;28;20045;-63
2023/10/28 01:37:18;;;;;;;3.08;1.00;;;9.90;99.90;;;;;;5016074;28;20450;-63
2023/10/28 01:39:50;;;;;;;4.00;1.20;;;10.00;99.90;;;;;;4998417;28;20128;-64
2023/10/28 01:42:16;;;;;;;3.67;0.98;;;9.90;99.90;;;;;;5016040;28;20121;-63
2023/10/28 01:44:45;;;;;;;8.80;1.23;;;9.90;99.90;;;;;;5016397;28;20076;-64
2023/10/28 01:47:13;;;;;;;3.63;0.95;;;9.90;99.90;;;;;;4998402;28;20104;-52
2023/10/28 01:49:40;;;;;;;3.45;1.00;;;9.90;99.90;;;;;;5016243;28;20092;-53
2023/10/28 01:52:10;;;;;;;4.45;0.98;;;9.90;99.90;;;;;;4998763;28;20059;-55
2023/10/28 01:54:37;;;;;;;7.38;1.38;;;9.90;99.90;;;;;;5016058;28;20065;-55
2023/10/28 01:57:06;;;;;;;3.00;1.00;;;10.00;99.90;;;;;;5016269;28;20034;-52
2023/10/28 01:59:33;;;;;;;5.10;1.33;;;9.90;99.90;;;;;;4998218;28;20100;-63
2023/10/28 02:02:03;;;;;;;4.35;1.13;;;10.00;99.90;;;;;;4998179;28;20041;-63
2023/10/28 02:04:30;;;;;;;3.92;1.30;;;10.00;99.90;;;;;;4998330;28;20049;-63
2023/10/28 02:07:00;;;;;;;5.40;1.23;;;10.00;99.90;;;;;;5015763;28;20034;-64
2023/10/28 02:09:27;;;;;;;7.63;1.20;;;10.00;99.90;;;;;;5015370;28;20065;-63
2023/10/28 02:11:54;;;;;;;6.43;1.02;;;10.00;99.90;;;;;;5016156;28;20183;-63
2023/10/28 02:14:23;;;;;;;5.82;1.38;;;10.00;99.90;;;;;;4997963;28;20042;-63
2023/10/28 02:16:49;;;;;;;6.65;1.20;;;10.00;99.90;;;;;;4997730;28;20152;-64
2023/10/28 02:19:20;;;;;;;7.15;1.38;;;10.00;99.90;;;;;;5015367;28;20411;-64
2023/10/28 02:21:48;;;;;;;3.85;0.90;;;10.00;99.90;;;;;;4981758;28;20038;-63
2023/10/28 02:24:24;;;;;;;6.15;1.10;;;10.10;99.90;;;;;;5015888;28;20046;-55
2023/10/28 02:26:51;;;;;;;6.18;1.00;;;10.10;99.90;;;;;;5015151;28;20359;-53
2023/10/28 02:29:18;;;;;;;6.90;1.23;;;10.10;99.90;;;;;;5015516;28;20489;-54
2023/10/28 02:31:45;;;;;;;6.40;1.48;;;10.10;99.90;;;;;;5015487;28;20045;-55
2023/10/28 02:34:12;;;;;;;7.20;1.40;;;10.00;99.90;;;;;;5014975;28;20066;-55
2023/10/28 02:36:39;;;;;;;4.65;0.98;;;10.00;99.90;;;;;;4997040;28;20054;-54
2023/10/28 02:39:06;;;;;;;2.42;0.90;;;10.00;99.90;;;;;;5014621;28;20121;-53
2023/10/28 02:41:33;;;;;;;4.80;1.00;;;9.90;99.90;;;;;;4997253;28;20045;-64
2023/10/28 02:44:02;;;;;;;4.53;0.77;;;9.90;99.90;;;;;;4997384;28;20395;-63
2023/10/28 02:46:29;;;;;;;4.50;0.88;;;9.90;99.90;;;;;;5014415;28;20042;-63
2023/10/28 02:48:55;;;;;;;2.05;0.70;;;9.90;99.90;;;;;;4996805;28;20133;-63
2023/10/28 02:51:22;;;;;;;2.35;0.73;;;9.80;99.90;;;;;;5015087;28;20391;-63
2023/10/28 02:53:49;;;;;;;4.60;1.02;;;9.80;99.90;;;;;;5014566;28;20124;-63
2023/10/28 02:56:16;;;;;;;5.70;0.90;;;9.70;99.90;;;;;;4996882;28;20034;-63
2023/10/28 02:58:43;;;;;;;2.88;1.05;;;9.70;99.90;;;;;;5014556;28;20034;-63
2023/10/28 03:01:10;;;;;;;5.25;1.15;;;9.80;99.90;;;;;;5014431;28;20038;-63
2023/10/28 03:03:36;;;;;;;3.22;1.00;;;9.70;99.90;;;;;;5014577;28;20402;-63
2023/10/28 03:06:03;;;;;;;5.32;1.15;;;9.70;99.90;;;;;;5014275;28;20042;-64
2023/10/28 03:08:30;;;;;;;2.45;0.90;;;9.70;99.90;;;;;;4996895;28;20053;-54
2023/10/28 03:10:57;;;;;;;2.03;0.80;;;9.70;99.90;;;;;;4996629;28;20483;-52
2023/10/28 03:13:24;;;;;;;5.65;1.05;;;9.80;99.90;;;;;;5014726;28;20343;-53
2023/10/28 03:15:51;;;;;;;4.40;0.82;;;9.80;99.90;;;;;;5014176;28;20034;-54
2023/10/28 03:18:18;;;;;;;2.83;0.70;;;9.80;99.90;;;;;;4996736;28;20046;-52
2023/10/28 03:20:45;;;;;;;2.97;0.90;;;9.80;99.90;;;;;;5014411;28;20041;-54
2023/10/28 03:23:12;;;;;;;2.53;0.68;;;9.80;99.90;;;;;;5014173;28;20044;-52
2023/10/28 03:25:39;;;;;;;2.55;0.70;;;9.80;99.90;;;;;;5014060;28;20046;-56
2023/10/28 03:28:06;;;;;;;4.53;0.93;;;9.80;99.90;;;;;;5014427;28;20073;-53
2023/10/28 03:30:33;;;;;;;3.13;0.88;;;9.80;99.90;;;;;;4997249;28;20120;-52
2023/10/28 03:33:00;;;;;;;3.72;0.80;;;9.90;99.90;;;;;;5013881;28;20125;-51
2023/10/28 03:35:26;;;;;;;2.78;0.75;;;9.90;99.90;;;;;;5013885;28;20514;-55
2023/10/28 03:37:55;;;;;;;4.85;0.88;;;9.90;99.90;;;;;;4992847;28;20161;-53
2023/10/28 03:40:23;;;;;;;5.10;1.00;;;9.90;99.90;;;;;;4994834;28;20031;-52
2023/10/28 03:42:49;;;;;;;4.13;0.70;;;10.00;99.90;;;;;;4994143;28;20046;-54
2023/10/28 03:45:17;;;;;;;3.25;0.80;;;9.90;99.90;;;;;;4994336;28;20047;-50
2023/10/28 03:47:44;;;;;;;4.35;0.65;;;10.00;99.90;;;;;;4994331;28;20056;-56
2023/10/28 03:50:11;;;;;;;3.15;0.70;;;9.90;99.90;;;;;;4994661;28;20081;-54
2023/10/28 03:52:38;;;;;;;2.40;0.75;;;10.00;99.90;;;;;;4994057;28;20050;-54
2023/10/28 03:55:04;;;;;;;4.30;0.85;;;10.00;99.90;;;;;;4994397;28;20038;-63
2023/10/28 03:57:31;;;;;;;3.95;0.90;;;10.00;99.90;;;;;;4994276;28;20065;-63
2023/10/28 03:59:58;;;;;;;1.83;0.70;;;9.90;99.90;;;;;;4994428;28;20042;-63
2023/10/28 04:02:25;;;;;;;4.70;0.90;;;9.90;99.90;;;;;;4994333;28;20141;-63
2023/10/28 04:04:52;;;;;;;2.78;0.75;;;9.90;99.90;;;;;;4994269;28;20406;-64
2023/10/28 04:07:19;;;;;;;2.67;0.70;;;9.90;99.90;;;;;;4993660;28;20070;-64
2023/10/28 04:09:46;;;;;;;1.75;0.70;;;9.90;99.90;;;;;;4976947;28;20053;-63
2023/10/28 04:12:13;;;;;;;4.05;0.90;;;9.90;99.90;;;;;;4994305;28;20042;-63
2023/10/28 04:14:40;;;;;;;3.88;0.98;;;9.90;99.90;;;;;;4993835;28;20045;-64
2023/10/28 04:17:07;;;;;;;2.55;0.82;;;9.90;99.90;;;;;;4993567;28;20074;-64
2023/10/28 04:19:34;;;;;;;4.13;0.90;;;9.90;99.90;;;;;;4993996;28;20482;-64
2023/10/28 04:22:01;;;;;;;4.60;0.73;;;10.00;99.90;;;;;;4993946;28;20054;-64
2023/10/28 04:24:27;;;;;;;6.07;0.80;;;10.00;99.90;;;;;;4993978;28;20127;-64
2023/10/28 04:26:54;;;;;;;2.70;0.65;;;10.00;99.90;;;;;;4993913;28;20106;-64
2023/10/28 04:29:21;;;;;;;6.63;0.85;;;10.10;99.90;;;;;;4993717;28;20546;-64
2023/10/28 04:31:47;;;;;;;2.92;0.80;;;10.10;99.90;;;;;;4993502;28;20046;-64
2023/10/28 04:34:14;;;;;;;4.68;0.80;;;10.20;99.90;;;;;;4993725;28;20038;-64
2023/10/28 04:36:41;;;;;;;3.22;0.70;;;10.20;99.90;;;;;;5000773;28;20068;-63
2023/10/28 04:39:08;;;;;;;2.83;0.90;;;10.30;99.90;;;;;;5013511;28;20046;-64
2023/10/28 04:41:35;;;;;;;4.88;0.90;;;10.30;99.90;;;;;;5013122;28;20056;-64
2023/10/28 04:44:01;;;;;;;2.85;1.05;;;10.30;99.90;;;;;;5013242;28;20053;-63
2023/10/28 04:46:29;;;;;;;5.50;0.77;;;10.30;99.90;;;;;;5013078;28;20041;-64
2023/10/28 04:48:56;;;;;;;3.15;0.70;;;10.30;99.90;;;;;;5012955;28;20038;-64
2023/10/28 04:51:24;;;;;;;2.50;0.77;;;10.30;99.90;;;;;;5013496;28;20042;-51
2023/10/28 04:53:51;;;;;;;2.53;0.60;;;10.30;99.90;;;;;;5013430;28;20045;-52
2023/10/28 04:56:18;;;;;;;2.10;0.52;;;10.30;99.90;;;;;;5013288;28;20121;-54
2023/10/28 04:58:45;;;;;;;2.00;0.60;;;10.30;99.90;;;;;;5013002;28;20046;-52
2023/10/28 05:01:12;;;;;;;4.20;0.80;;;10.30;99.90;;;;;;5012965;28;20487;-53
2023/10/28 05:03:39;;;;;;;5.00;0.68;;;10.30;99.90;;;;;;5013138;28;20049;-53
2023/10/28 05:06:09;;;;;;;7.97;1.35;;;10.30;99.90;;;;;;4979409;28;20414;-52
2023/10/28 05:08:36;;;;;;;4.82;0.85;;;10.30;99.90;;;;;;5013765;28;20057;-55
2023/10/28 05:11:04;;;;;;;2.15;0.60;;;10.20;99.90;;;;;;5017178;28;20438;-64
2023/10/28 05:13:31;;;;;;;3.72;0.68;;;10.20;99.90;;;;;;5016587;28;20050;-64
2023/10/28 05:15:58;;;;;;;2.85;0.60;;;10.20;99.90;;;;;;5017033;28;20042;-64
2023/10/28 05:18:26;;;;;;;4.93;1.00;;;10.20;99.90;;;;;;5016704;28;20040;-55
2023/10/28 05:20:55;;;;;;;2.00;0.73;;;10.10;99.90;;;;;;5016911;28;20395;-55
2023/10/28 05:23:22;;;;;;;2.92;0.70;;;10.10;99.90;;;;;;5016910;28;20421;-56
2023/10/28 05:25:49;;;;;;;3.05;0.60;;;10.20;99.90;;;;;;5016936;28;20038;-55
2023/10/28 05:28:16;;;;;;;3.28;0.68;;;10.10;99.90;;;;;;5016239;28;20050;-55
2023/10/28 05:30:43;;;;;;;3.05;0.50;;;10.10;99.90;;;;;;5016309;28;20042;-55
2023/10/28 05:33:10;;;;;;;3.08;0.80;;;10.10;99.90;;;;;;4999026;28;20042;-53
2023/10/28 05:35:37;;;;;;;2.65;0.55;;;10.10;99.90;;;;;;4998910;28;20049;-63
2023/10/28 05:38:04;;;;;;;2.88;0.80;;;10.10;99.90;;;;;;5016159;28;20086;-63
2023/10/28 05:40:31;;;;;;;5.38;2.60;;;10.10;99.90;;;;;;5016374;28;20042;-63
2023/10/28 05:42:57;;;;;;;3.78;0.90;;;10.00;99.90;;;;;;5015961;28;20037;-64
2023/10/28 05:45:24;;;;;;;4.63;0.70;;;10.00;99.90;;;;;;5016540;28;20117;-64
2023/10/28 05:47:52;;;;;;;2.17;0.52;;;10.00;99.90;;;;;;5015909;28;20044;-64
2023/10/28 05:50:19;;;;;;;3.88;0.80;;;10.00;99.90;;;;;;5016045;28;20400;-54
2023/10/28 05:52:47;;;;;;;4.78;0.75;;;10.00;99.90;;;;;;5016011;28;20038;-52
2023/10/28 05:55:14;;;;;;;4.05;0.75;;;10.00;99.90;;;;;;5016203;28;20034;-54
2023/10/28 05:57:40;;;;;;;3.20;1.02;;;10.10;99.90;;;;;;5016304;28;20041;-55
2023/10/28 06:00:10;;;;;;;5.00;0.85;;;10.10;99.90;;;;;;5016175;28;20486;-55
2023/10/28 06:02:37;;;;;;;4.60;0.80;;;10.20;99.90;;;;;;5016360;28;20475;-55
2023/10/28 06:05:03;;;;;;;5.13;1.60;;;10.20;99.90;;;;;;5016190;28;20033;-52
2023/10/28 06:07:30;;;;;;;5.22;0.90;;;10.20;99.90;;;;;;5016328;28;20133;-63
2023/10/28 06:09:57;;;;;;;4.60;1.23;;;10.30;99.90;;;;;;5016212;28;20493;-64
2023/10/28 06:12:27;;;;;;;2.65;0.70;;;10.30;99.90;;;;;;5015759;28;20046;-64
2023/10/28 06:14:54;;;;;;;4.40;0.85;;;10.30;99.90;;;;;;5015493;28;20162;-63
2023/10/28 06:17:20;;;;;;;5.50;0.88;;;10.30;99.90;;;;;;5015748;28;20042;-63
2023/10/28 06:19:48;;;;;;;3.28;0.70;;;10.30;99.90;;;;;;5015017;28;20050;-64
2023/10/28 06:22:15;;;;;;;4.28;0.70;;;10.30;99.90;;;;;;5014560;28;20042;-63
2023/10/28 06:24:42;;;;;;;3.13;0.70;;;10.30;99.90;;;;;;5015437;28;20034;-63
2023/10/28 06:27:09;;;;;;;2.90;0.70;;;10.30;99.90;;;;;;5015152;28;20045;-63
2023/10/28 06:29:36;;;;;;;3.30;0.70;;;10.20;99.90;;;;;;5015262;28;20132;-63
2023/10/28 06:32:03;;;;;;;3.55;0.88;;;10.20;99.90;;;;;;5015717;28;20041;-63
2023/10/28 06:34:31;;;;;;;3.38;0.60;;;10.20;99.90;;;;;;5015570;28;20517;-63
2023/10/28 06:36:58;;;;;;;3.42;1.15;;;10.20;99.90;;;;;;5014988;28;20050;-64
2023/10/28 06:39:24;;;;;;;3.72;0.82;;;10.20;99.90;;;;;;5015006;28;20069;-63
2023/10/28 06:41:51;;;;;;;3.15;0.80;;;10.10;99.90;;;;;;5015373;28;20041;-63
2023/10/28 06:44:23;;;;;;;4.10;0.88;;;10.10;99.90;;;;;;4997891;28;20048;-63
2023/10/28 06:46:51;;;;;;;2.75;0.70;;;10.10;99.90;;;;;;5014948;28;20053;-63
2023/10/28 06:49:18;;;;;;;5.75;0.75;;;10.10;99.90;;;;;;4997600;28;20446;-63
2023/10/28 06:51:45;;;;;;;5.25;0.98;;;10.00;99.90;;;;;;5015254;28;20052;-64
2023/10/28 06:54:12;;;;;;;5.45;0.80;;;10.00;99.90;;;;;;5015278;28;20049;-63
2023/10/28 06:56:39;;;;;;;3.63;1.10;;;10.00;99.90;;;;;;5014732;28;20046;-64
2023/10/28 06:59:06;;;;;;;5.65;0.82;;;10.00;99.90;;;;;;5015101;28;20042;-64
2023/10/28 07:01:34;;;;;;;4.55;0.85;;;10.00;99.90;;;;;;5014469;28;20041;-63
2023/10/28 07:04:01;;;;;;;3.35;0.63;;;10.00;99.90;;;;;;5014799;28;20053;-63
2023/10/28 07:06:28;;;;;;;5.20;0.80;;;10.00;99.90;;;;;;5014588;28;20407;-63
2023/10/28 07:08:55;;;;;;;2.70;0.77;;;10.00;99.90;;;;;;5014915;28;20042;-63
2023/10/28 07:11:22;;;;;;;3.25;0.80;;;10.00;99.90;;;;;;5014479;28;20125;-63
2023/10/28 07:13:48;;;;;;;4.78;0.90;;;10.00;99.90;;;;;;5014834;28;20034;-63
2023/10/28 07:16:17;;;;;;;9.52;1.30;;;10.10;99.90;;;;;;5014856;28;20128;-63
2023/10/28 07:18:44;;;;;;;4.07;0.90;;;10.10;99.90;;;;;;5014729;28;20042;-63
2023/10/28 07:21:11;;;;;;;4.13;0.93;;;10.20;99.90;;;;;;5009508;28;20037;-55
2023/10/28 07:23:38;;;;;;;7.47;1.98;;;10.20;99.90;;;;;;5034077;28;20170;-53
2023/10/28 07:26:05;;;;;;;8.45;1.10;;;10.20;99.90;;;;;;5034025;28;20069;-55
2023/10/28 07:28:37;;;;;;;4.43;1.00;;;10.20;99.90;;;;;;5033965;28;20045;-54
2023/10/28 07:31:05;;;;;;;6.30;1.15;;;10.30;99.90;;;;;;5033772;28;20474;-50
2023/10/28 07:33:33;;;;;;;5.78;1.02;;;10.30;99.90;;;;;;5033627;28;20049;-50
2023/10/28 07:36:02;;;;;;;6.10;0.98;;;10.40;99.90;;;;;;5033840;28;20512;-53
2023/10/28 07:38:29;;;;;;;5.35;1.38;;;10.40;99.90;;;;;;5034209;28;20048;-55
2023/10/28 07:40:57;;;;;;;7.95;1.10;;;10.40;99.90;;;;;;5015855;28;20087;-51
2023/10/28 07:43:24;;;;;;;5.60;1.10;;;10.40;99.90;;;;;;5033520;28;20037;-51
2023/10/28 07:45:51;;;;;;;6.32;1.27;;;10.50;99.90;;;;;;5034118;28;20292;-55
2023/10/28 07:48:18;;;;;;;5.65;1.33;;;10.50;99.90;;;;;;5033708;28;20045;-54
2023/10/28 07:50:45;;;;;;;3.85;0.88;;;10.50;99.90;;;;;;5034082;28;20034;-53
2023/10/28 07:53:11;;;;;;;6.13;1.27;;;10.60;99.90;;;;;;5015766;28;20070;-63
2023/10/28 07:55:38;;;;;;;5.40;1.00;;;10.60;99.90;;;;;;5016390;28;20029;-63
2023/10/28 07:58:05;;;;;;;6.28;1.10;;;10.60;99.90;;;;;;5033229;28;20037;-53
2023/10/28 08:00:32;;;;;;;5.80;1.33;;;10.60;99.90;;;;;;5033832;28;20038;-53
2023/10/28 08:03:00;;;;;;;6.60;1.10;;;10.60;99.90;;;;;;5033186;28;20444;-51
2023/10/28 08:05:27;;;;;;;5.75;0.93;;;10.60;99.90;;;;;;5015905;28;20041;-55
2023/10/28 08:07:54;;;;;;;6.25;1.38;;;10.70;99.90;;;;;;5033320;28;20355;-55
2023/10/28 08:10:24;;;;;;;6.22;1.55;;;10.70;99.90;;;;;;5033477;28;20120;-53
2023/10/28 08:12:51;;;;;;;7.18;1.23;;;10.70;99.90;;;;;;5033104;28;20049;-54
2023/10/28 08:15:19;;;;;;;8.75;2.40;;;10.80;99.90;;;;;;5033266;28;20050;-54
2023/10/28 08:17:46;;;;;;;4.10;1.00;;;10.80;99.90;;;;;;5015646;28;20053;-51
2023/10/28 08:20:14;;;;;;;5.53;1.52;;;10.80;99.90;;;;;;5033643;28;20113;-55
2023/10/28 08:22:41;;;;;;;6.70;1.67;;;10.90;99.90;;;;;;5033777;28;20037;-55
2023/10/28 08:25:08;;;;;;;5.97;2.10;;;10.90;99.90;;;;;;5033069;28;20041;-52
2023/10/28 08:27:35;;;;;;;7.25;2.30;;;10.90;99.90;;;;;;5033572;28;20045;-51
2023/10/28 08:30:03;;;;;;;5.05;1.92;;;11.00;99.90;;;;;;5033350;28;20049;-52
2023/10/28 08:32:31;;;;;;;6.95;1.55;;;11.00;99.90;;;;;;5033828;28;20049;-55
2023/10/28 08:34:58;;;;;;;3.70;0.98;;;11.00;99.90;;;;;;5033158;28;20124;-55
2023/10/28 08:37:25;;;;;;;7.40;1.35;;;11.00;99.90;;;;;;5033140;28;20057;-51
2023/10/28 08:39:53;;;;;;;5.30;1.05;;;11.00;99.90;;;;;;5032767;28;20444;-51
2023/10/28 08:42:20;;;;;;;6.65;1.50;;;11.00;99.90;;;;;;5033445;28;20061;-54
2023/10/28 08:44:47;;;;;;;5.20;0.85;;;11.00;99.90;;;;;;5034963;28;20037;-55
2023/10/28 08:47:14;;;;;;;8.13;1.20;;;11.10;99.90;;;;;;5037211;28;20443;-51
2023/10/28 08:49:42;;;;;;;9.45;1.67;;;11.00;99.90;;;;;;5036894;28;20048;-56
2023/10/28 08:52:08;;;;;;;7.18;1.30;;;11.00;99.90;;;;;;5036913;28;20037;-54
2023/10/28 08:54:38;;;;;;;8.20;1.42;;;11.00;99.90;;;;;;5036521;28;20045;-52
2023/10/28 08:57:05;;;;;;;8.25;1.38;;;11.00;99.90;;;;;;5036403;28;20137;-64
2023/10/28 08:59:32;;;;;;;6.47;1.25;;;11.00;99.90;;;;;;5036829;28;20047;-63
2023/10/28 09:01:59;;;;;;;7.22;1.48;;;11.00;99.90;;;;;;5036412;28;20084;-63
2023/10/28 09:04:26;;;;;;;5.70;1.17;;;11.10;99.90;;;;;;5019303;28;20068;-63
2023/10/28 09:06:53;;;;;;;7.63;1.30;;;11.10;99.90;;;;;;5036979;28;20072;-63
2023/10/28 09:09:25;;;;;;;6.97;1.40;;;11.10;99.90;;;;;;5036351;28;20045;-53
2023/10/28 09:11:52;;;;;;;11.75;2.40;;;11.10;99.90;;;;;;5026148;28;20042;-54
2023/10/28 09:14:19;;;;;;;8.55;1.33;;;11.10;99.90;;;;;;5016911;28;20422;-53
2023/10/28 09:16:46;;;;;;;8.75;1.85;;;11.10;99.90;;;;;;5017100;28;20038;-50
2023/10/28 09:19:13;;;;;;;10.88;1.70;;;11.10;99.90;;;;;;4998545;28;20042;-53
2023/10/28 09:21:39;;;;;;;7.40;1.80;;;11.10;99.90;;;;;;5016941;28;20065;-64
2023/10/28 09:24:06;;;;;;;10.15;1.73;;;11.10;99.90;;;;;;5016418;28;20486;-63
2023/10/28 09:26:33;;;;;;;10.25;1.70;;;11.10;99.90;;;;;;5015766;28;20038;-63
2023/10/28 09:29:01;;;;;;;10.80;2.20;;;11.10;99.90;;;;;;5016500;28;20483;-63
2023/10/28 09:31:28;;;;;;;10.77;1.85;;;11.20;99.90;;;;;;5016488;28;20045;-63
2023/10/28 09:33:54;;;;;;;12.65;1.95;;;11.20;99.90;;;;;;5016936;28;20052;-63
2023/10/28 09:36:21;;;;;;;11.80;2.50;;;11.20;99.90;;;;;;5016145;28;20080;-55
2023/10/28 09:38:48;;;;;;;11.68;2.47;;;11.20;99.90;;;;;;5016312;28;20424;-53
2023/10/28 09:41:16;;;;;;;12.95;2.00;;;11.20;99.90;;;;;;5016348;28;20038;-50
2023/10/28 09:43:43;;;;;;;12.82;2.20;;;11.20;99.90;;;;;;5016499;28;20518;-51
2023/10/28 09:46:10;;;;;;;10.77;2.28;;;11.30;99.90;;;;;;5014876;28;20062;-55
2023/10/28 09:48:38;;;;;;;10.55;2.05;;;11.30;99.90;;;;;;5008216;28;20124;-53
2023/10/28 09:51:05;;;;;;;13.60;2.30;;;11.30;99.90;;;;;;4996484;28;20449;-54
2023/10/28 09:53:33;;;;;;;15.98;3.08;;;11.30;99.90;;;;;;4979366;28;20043;-55
2023/10/28 09:56:00;;;;;;;16.13;2.47;;;11.40;99.90;;;;;;4996445;28;20425;-55
2023/10/28 09:58:27;;;;;;;14.52;2.63;;;11.40;99.90;;;;;;4995665;28;20052;-54
2023/10/28 10:00:54;;;;;;;18.42;3.33;;;11.50;99.90;;;;;;4996079;28;20062;-53
2023/10/28 10:03:21;;;;;;;11.20;2.42;;;11.70;99.90;;;;;;4996226;28;20062;-51
2023/10/28 10:05:48;;;;;;;19.13;4.63;;;11.80;99.90;;;;;;4996049;28;20042;-51
2023/10/28 10:08:14;;;;;;;9.90;2.53;;;11.90;99.90;;;;;;4995799;28;20050;-53
2023/10/28 10:10:41;;;;;;;14.95;2.85;;;12.00;99.90;;;;;;4978841;28;20054;-55
2023/10/28 10:13:08;;;;;;;11.90;2.40;;;12.10;99.90;;;;;;4995717;28;20046;-55
2023/10/28 10:15:35;;;;;;;13.27;2.50;;;12.10;99.90;;;;;;4996291;28;20068;-52
2023/10/28 10:18:04;;;;;;;13.60;3.15;;;12.20;99.90;;;;;;4995755;28;20045;-53
2023/10/28 10:20:31;;;;;;;16.02;2.65;;;12.30;99.90;;;;;;4995784;28;20053;-53
2023/10/28 10:23:02;;;;;;;11.27;2.53;;;12.40;99.90;;;;;;4996073;28;20038;-54
2023/10/28 10:25:29;;;;;;;14.48;2.78;;;12.40;99.90;;;;;;4995527;28;20480;-55
2023/10/28 10:27:56;;;;;;;12.15;2.70;;;12.50;99.90;;;;;;4977960;28;20042;-54
2023/10/28 10:30:22;;;;;;;14.27;2.63;;;12.60;99.90;;;;;;4996438;28;20069;-53
2023/10/28 10:32:49;;;;;;;12.02;2.78;;;12.80;99.90;;;;;;5015212;28;20046;-51
2023/10/28 10:35:16;;;;;;;11.63;3.05;;;12.80;99.90;;;;;;5015287;28;20120;-54
2023/10/28 10:37:43;;;;;;;17.17;2.85;;;12.90;99.90;;;;;;5014916;28;20052;-50
2023/10/28 10:40:10;;;;;;;17.15;3.72;;;12.90;99.90;;;;;;5015056;28;20037;-54
2023/10/28 10:42:38;;;;;;;12.65;3.50;;;13.00;99.90;;;;;;5015291;28;20046;-51
2023/10/28 10:45:05;;;;;;;15.23;3.33;;;13.10;99.90;;;;;;5014449;28;20049;-63
2023/10/28 10:47:32;;;;;;;15.57;3.30;;;13.10;99.90;;;;;;5014497;28;20057;-63
2023/10/28 10:49:59;;;;;;;15.18;3.00;;;13.10;99.90;;;;;;5014774;28;20046;-63
2023/10/28 10:52:26;;;;;;;17.48;3.80;;;13.20;99.90;;;;;;5015114;28;20045;-63
2023/10/28 10:54:53;;;;;;;16.05;3.95;;;13.20;99.90;;;;;;5014509;28;20100;-63
2023/10/28 10:57:20;;;;;;;19.33;4.10;;;13.30;99.90;;;;;;5013278;28;20037;-63
2023/10/28 10:59:47;;;;;;;15.60;3.50;;;13.40;99.90;;;;;;5014349;28;20133;-52
2023/10/28 11:02:14;;;;;;;20.25;3.78;;;13.50;99.90;;;;;;5014966;28;20038;-53
2023/10/28 11:04:41;;;;;;;21.52;4.20;;;13.50;99.90;;;;;;5015036;28;20399;-54
2023/10/28 11:07:09;;;;;;;21.33;4.03;;;13.50;99.90;;;;;;5013511;28;20440;-54
2023/10/28 11:09:38;;;;;;;18.27;3.60;;;13.60;99.90;;;;;;5013201;28;20410;-55
2023/10/28 11:12:05;;;;;;;21.17;4.05;;;13.60;99.90;;;;;;5013184;28;20491;-64
2023/10/28 11:14:32;;;;;;;17.52;3.70;;;13.60;99.90;;;;;;5013412;28;20120;-64
2023/10/28 11:16:59;;;;;;;21.98;4.53;;;13.70;99.90;;;;;;5013006;28;20046;-64
2023/10/28 11:19:26;;;;;;;24.05;4.82;;;13.80;99.90;;;;;;5013062;28;20041;-63
2023/10/28 11:21:54;;;;;;;23.83;4.68;;;13.80;99.90;;;;;;5012946;28;20048;-64
2023/10/28 11:24:21;;;;;;;23.10;4.65;;;13.70;99.90;;;;;;5012914;28;20038;-64
2023/10/28 11:26:47;;;;;;;20.45;4.50;;;13.70;99.90;;;;;;5014210;28;20041;-64
2023/10/28 11:29:14;;;;;;;23.77;4.47;;;13.80;99.90;;;;;;5014320;28;20046;-64
2023/10/28 11:31:41;;;;;;;22.92;4.45;;;13.80;99.90;;;;;;5012859;28;20406;-64
2023/10/28 11:34:08;;;;;;;26.13;5.03;;;13.80;99.90;;;;;;5014083;28;20054;-65
2023/10/28 11:36:35;;;;;;;20.23;4.80;;;13.90;99.90;;;;;;5013849;28;20058;-63
2023/10/28 11:39:02;;;;;;;20.67;4.43;;;13.90;99.90;;;;;;5013131;28;20360;-63
2023/10/28 11:41:30;;;;;;;22.17;4.40;;;13.80;99.90;;;;;;5013823;28;20037;-63
2023/10/28 11:43:57;;;;;;;20.08;4.60;;;13.80;99.90;;;;;;5013717;28;20050;-63
2023/10/28 11:46:24;;;;;;;23.92;3.90;;;13.80;99.90;;;;;;5012700;28;20125;-62
2023/10/28 11:48:51;;;;;;;17.25;3.95;;;13.70;99.90;;;;;;5013860;28;20489;-62
2023/10/28 11:51:17;;;;;;;18.60;4.32;;;13.60;99.90;;;;;;5013570;28;20076;-62
2023/10/28 11:53:47;;;;;;;18.80;3.88;;;13.50;99.90;;;;;;5013696;28;20140;-62
2023/10/28 11:56:15;;;;;;;12.63;3.38;;;13.50;99.90;;;;;;5013713;28;20482;-62
2023/10/28 11:58:46;;;;;;;14.95;3.72;;;13.40;99.90;;;;;;5013457;28;20406;-62
2023/10/28 12:01:14;;;;;;;14.27;3.78;;;13.30;99.90;;;;;;5012785;28;20045;-64
2023/10/28 12:03:41;;;;;;;17.80;3.50;;;13.30;99.90;;;;;;5013524;28;20096;-63
2023/10/28 12:06:08;;;;;;;15.82;3.70;;;13.20;99.90;;;;;;5013963;28;20116;-63
2023/10/28 12:08:52;;;;;;;11.43;3.13;;;13.10;99.90;;;;;;5013835;28;20048;-63
2023/10/28 12:11:19;;;;;;;16.35;3.35;;;13.10;99.90;;;;;;5013238;28;20045;-64
2023/10/28 12:13:45;;;;;;;13.70;2.85;;;13.10;99.90;;;;;;5013455;28;20057;-63
2023/10/28 12:16:12;;;;;;;11.95;3.22;;;13.10;99.90;;;;;;5013771;28;20103;-62
2023/10/28 12:18:39;;;;;;;19.15;3.33;;;13.10;99.90;;;;;;5012444;28;20371;-63
2023/10/28 12:21:06;;;;;;;13.27;3.40;;;13.10;99.90;;;;;;5013318;28;20517;-53
2023/10/28 12:23:33;;;;;;;14.57;3.80;;;13.10;99.90;;;;;;5013091;28;20116;-55
2023/10/28 12:26:00;;;;;;;11.35;2.85;;;13.20;99.90;;;;;;5013565;28;20073;-56
2023/10/28 12:28:27;;;;;;;11.55;2.60;;;13.10;99.90;;;;;;5013720;28;20053;-55
2023/10/28 12:30:53;;;;;;;13.60;3.30;;;13.20;99.90;;;;;;5013184;28;20042;-55
2023/10/28 12:33:20;;;;;;;12.65;2.97;;;13.20;99.90;;;;;;5014216;28;20424;-53
2023/10/28 12:35:47;;;;;;;15.57;2.95;;;13.20;99.90;;;;;;5013316;28;20045;-54
2023/10/28 12:38:14;;;;;;;13.52;3.65;;;13.20;99.90;;;;;;5013305;28;20507;-63
2023/10/28 12:40:40;;;;;;;13.55;3.15;;;13.20;99.90;;;;;;5013523;28;20133;-64
2023/10/28 12:43:08;;;;;;;14.07;4.85;;;13.20;99.90;;;;;;5013542;28;20053;-56
2023/10/28 12:45:35;;;;;;;11.95;3.08;;;13.20;99.90;;;;;;5012951;28;20042;-54